Ek-star — LAMT5 — position and weather

sailwx.info

Track history (hours):
 
Tides and Currents Weather Stations Pressure Air Temp Water Temp Dewpoint Dewpoint Depression Visibility Wind Speed Wind Dir Waves Ship Positions

Ek-star

Last reported at 2015-Jan-30 02:33 UTC. Time now 2015-Jan-30 14:01 UTC.
Position N 59°59' E 026°51'.

Length 135 m; draft 6 m.

Type: Tanker. MMSI: 257433000.

Date/timePositionNaut miles runAvg speedWind from/ knotsBaromVisibWave heightAir tempDewpointWater temp
2015-Jan-30 02:33N 59°59' E 026°51'1212.5
2015-Jan-30 01:33N 59°58' E 026°26'5412.9
2015-Jan-29 21:21N 59°45' E 024°41'1012.8
2015-Jan-29 20:34N 59°43' E 024°21'1612.9
2015-Jan-29 19:17N 59°38' E 023°51'1213.6
2015-Jan-29 18:23N 59°35' E 023°27'  
2015-Jan-27 02:23N 59°32' E 021°21'7712.3
2015-Jan-26 20:08N 59°43' E 023°51'1313.0
2015-Jan-26 19:06N 59°46' E 024°17'713.0
2015-Jan-26 18:33N 59°48' E 024°30'1313.0
2015-Jan-26 17:34N 59°50' E 024°55'20 8.4
2015-Jan-26 15:10N 59°45' E 025°34'912.0
2015-Jan-26 14:24N 59°48' E 025°52'28 0.8
2015-Jan-25 03:23N 60°01' E 026°42'10511.7
2015-Jan-24 18:23N 59°53' E 030°11'2 0.0
2015-Jan-22 15:25N 59°52' E 030°13'1 1.6
2015-Jan-22 14:33N 59°53' E 030°11'83 5.3
2015-Jan-21 22:50N 60°05' E 027°27'1712.9
2015-Jan-21 21:33N 59°58' E 026°57'1513.1
2015-Jan-21 20:26N 59°58' E 026°28'3 0.1
2015-Jan-20 18:26N 60°01' E 026°29'11212.5
2015-Jan-20 09:28N 59°53' E 030°12'  
Track history (hours):
 
Tides and Currents Weather Stations Pressure Air Temp Water Temp Dewpoint Dewpoint Depression Visibility Wind Speed Wind Dir Waves Ship Positions

Ek-star

Last reported at 2015-Jan-30 02:33 UTC. Time now 2015-Jan-30 14:01 UTC.
Position N 59°59' E 026°51'.

Length 135 m; draft 6 m.

Type: Tanker. MMSI: 257433000.

Date/timePositionNaut miles runAvg speedWind from/ knotsBaromVisibWave heightAir tempDewpointWater temp
2015-Jan-30 02:33N 59°59' E 026°51'1212.5
2015-Jan-30 01:33N 59°58' E 026°26'5412.9
2015-Jan-29 21:21N 59°45' E 024°41'1012.8
2015-Jan-29 20:34N 59°43' E 024°21'1612.9
2015-Jan-29 19:17N 59°38' E 023°51'1213.6
2015-Jan-29 18:23N 59°35' E 023°27'  
2015-Jan-27 02:23N 59°32' E 021°21'7712.3
2015-Jan-26 20:08N 59°43' E 023°51'1313.0
2015-Jan-26 19:06N 59°46' E 024°17'713.0
2015-Jan-26 18:33N 59°48' E 024°30'1313.0
2015-Jan-26 17:34N 59°50' E 024°55'20 8.4
2015-Jan-26 15:10N 59°45' E 025°34'912.0
2015-Jan-26 14:24N 59°48' E 025°52'28 0.8
2015-Jan-25 03:23N 60°01' E 026°42'10511.7
2015-Jan-24 18:23N 59°53' E 030°11'2 0.0
2015-Jan-22 15:25N 59°52' E 030°13'1 1.6
2015-Jan-22 14:33N 59°53' E 030°11'83 5.3
2015-Jan-21 22:50N 60°05' E 027°27'1712.9
2015-Jan-21 21:33N 59°58' E 026°57'1513.1
2015-Jan-21 20:26N 59°58' E 026°28'3 0.1
2015-Jan-20 18:26N 60°01' E 026°29'11212.5
2015-Jan-20 09:28N 59°53' E 030°12'  

Dump ship's entire track history